Time;durP1;ratioP1;P1;durP2;ratioP2;P2;SDS_P1;SDS_P2;PMS_P1;PMS_P2;Temp;Humidity;BMP_temperature;BMP_pressure;BME280_temperature;BME280_humidity;BME280_pressure;Samples;Min_cycle;Max_cycle;Signal;HPM_P1;HPM_P2
2022/03/26 00:02:01;;;;;;;33.07;21.53;;;;;;;;;;5007408;28;20215;-63
2022/03/26 00:04:28;;;;;;;35.43;20.90;;;;;;;;;;5001439;28;20218;-64
2022/03/26 00:06:56;;;;;;;36.40;22.90;;;;;;;;;;5016732;28;20325;-62
2022/03/26 00:09:23;;;;;;;36.43;21.50;;;;;;;;;;5009228;28;20284;-63
2022/03/26 00:11:51;;;;;;;32.70;21.00;;;;;;;;;;4995149;28;20227;-63
2022/03/26 00:14:18;;;;;;;38.23;22.20;;;;;;;;;;4986368;28;20282;-63
2022/03/26 00:16:45;;;;;;;37.20;21.70;;;;;;;;;;5014241;28;20198;-63
2022/03/26 00:19:14;;;;;;;35.87;21.60;;;;;;;;;;4992007;28;20211;-61
2022/03/26 00:21:42;;;;;;;35.23;20.63;;;;;;;;;;4983260;28;21050;-63
2022/03/26 00:24:10;;;;;;;34.53;21.43;;;;;;;;;;4991025;28;20210;-64
2022/03/26 00:26:37;;;;;;;37.07;22.47;;;;;;;;;;4987176;28;20285;-63
2022/03/26 00:29:04;;;;;;;39.17;22.47;;;;;;;;;;5015906;28;20210;-62
2022/03/26 00:31:33;;;;;;;39.50;21.97;;;;;;;;;;5014516;28;20242;-63
2022/03/26 00:34:01;;;;;;;32.17;20.70;;;;;;;;;;5011033;28;20672;-62
2022/03/26 00:36:28;;;;;;;37.37;23.17;;;;;;;;;;5014800;28;20597;-63
2022/03/26 00:38:56;;;;;;;36.50;21.13;;;;;;;;;;5014069;28;20206;-63
2022/03/26 00:41:23;;;;;;;37.13;21.10;;;;;;;;;;5001505;28;20229;-63
2022/03/26 00:43:51;;;;;;;37.40;20.97;;;;;;;;;;5014450;28;20610;-63
2022/03/26 00:46:18;;;;;;;36.83;21.67;;;;;;;;;;5004272;28;20206;-63
2022/03/26 00:48:46;;;;;;;34.23;21.47;;;;;;;;;;5008077;28;20309;-63
2022/03/26 00:51:15;;;;;;;31.27;20.57;;;;;;;;;;4991324;28;20237;-63
2022/03/26 00:53:46;;;;;;;35.57;22.10;;;;;;;;;;4991749;28;20202;-63
2022/03/26 00:56:13;;;;;;;34.40;21.17;;;;;;;;;;4992789;28;20657;-64
2022/03/26 00:58:41;;;;;;;34.07;20.57;;;;;;;;;;4999294;28;20264;-63
2022/03/26 01:01:09;;;;;;;36.17;21.43;;;;;;;;;;4997973;28;20233;-63
2022/03/26 01:03:36;;;;;;;38.23;21.63;;;;;;;;;;4999331;28;20210;-63
2022/03/26 01:06:04;;;;;;;37.27;21.50;;;;;;;;;;4999978;28;20216;-64
2022/03/26 01:08:32;;;;;;;40.37;23.33;;;;;;;;;;5008766;28;20214;-63
2022/03/26 01:11:00;;;;;;;38.30;22.60;;;;;;;;;;5010151;28;20234;-63
2022/03/26 01:13:28;;;;;;;37.47;21.60;;;;;;;;;;5000232;28;20210;-63
2022/03/26 01:15:56;;;;;;;35.40;22.27;;;;;;;;;;5018944;28;20289;-63
2022/03/26 01:18:23;;;;;;;35.53;21.73;;;;;;;;;;5012203;28;20286;-64
2022/03/26 01:20:52;;;;;;;36.50;21.70;;;;;;;;;;5011857;28;20238;-62
2022/03/26 01:23:20;;;;;;;35.33;21.77;;;;;;;;;;4994252;28;21643;-62
2022/03/26 01:25:47;;;;;;;36.63;21.43;;;;;;;;;;5008768;28;20207;-63
2022/03/26 01:28:15;;;;;;;36.27;22.10;;;;;;;;;;5029232;28;20198;-62
2022/03/26 01:30:43;;;;;;;35.13;22.60;;;;;;;;;;5020422;28;20700;-63
2022/03/26 01:33:10;;;;;;;33.53;21.27;;;;;;;;;;4997919;28;21064;-63
2022/03/26 01:35:38;;;;;;;38.33;22.07;;;;;;;;;;5007568;28;20217;-61
2022/03/26 01:38:06;;;;;;;36.47;22.10;;;;;;;;;;4996881;28;20343;-62
2022/03/26 01:40:35;;;;;;;34.07;20.23;;;;;;;;;;4989908;28;20276;-63
2022/03/26 01:43:03;;;;;;;35.20;21.67;;;;;;;;;;5014325;28;20216;-63
2022/03/26 01:45:31;;;;;;;32.20;20.40;;;;;;;;;;5004778;28;20206;-63
2022/03/26 01:47:59;;;;;;;37.07;21.53;;;;;;;;;;5005391;28;20213;-65
2022/03/26 01:50:27;;;;;;;36.97;22.53;;;;;;;;;;5001653;28;20230;-63
2022/03/26 01:52:55;;;;;;;35.73;21.33;;;;;;;;;;4989752;28;20202;-63
2022/03/26 01:55:23;;;;;;;37.93;20.50;;;;;;;;;;4998968;28;20210;-63
2022/03/26 01:57:50;;;;;;;37.93;20.67;;;;;;;;;;5001874;28;20209;-63
2022/03/26 02:00:21;;;;;;;34.77;20.87;;;;;;;;;;4986269;28;20245;-63
2022/03/26 02:02:49;;;;;;;39.07;21.13;;;;;;;;;;5008862;28;20218;-64
2022/03/26 02:05:18;;;;;;;33.97;20.57;;;;;;;;;;5019256;28;20249;-63
2022/03/26 02:07:47;;;;;;;35.60;21.63;;;;;;;;;;4995143;28;20226;-63
2022/03/26 02:10:15;;;;;;;35.20;20.67;;;;;;;;;;5012422;28;20752;-64
2022/03/26 02:12:42;;;;;;;36.60;21.10;;;;;;;;;;4994294;28;21322;-63
2022/03/26 02:15:11;;;;;;;36.63;21.47;;;;;;;;;;5011829;28;20209;-63
2022/03/26 02:17:38;;;;;;;37.93;21.60;;;;;;;;;;5017022;28;20207;-62
2022/03/26 02:20:09;;;;;;;37.57;21.70;;;;;;;;;;5003296;28;20287;-63
2022/03/26 02:22:38;;;;;;;36.93;21.37;;;;;;;;;;5019761;28;20834;-63
2022/03/26 02:25:07;;;;;;;39.20;21.30;;;;;;;;;;4992176;28;20209;-63
2022/03/26 02:27:34;;;;;;;37.03;20.90;;;;;;;;;;4992867;28;20209;-64
2022/03/26 02:30:02;;;;;;;36.00;21.47;;;;;;;;;;5004100;28;20229;-64
2022/03/26 02:32:29;;;;;;;31.80;20.80;;;;;;;;;;5022427;28;21677;-63
2022/03/26 02:34:57;;;;;;;38.43;21.17;;;;;;;;;;5017370;28;20292;-63
2022/03/26 02:37:30;;;;;;;38.87;20.23;;;;;;;;;;5011090;28;20240;-63
2022/03/26 02:39:58;;;;;;;35.40;21.73;;;;;;;;;;5000787;28;20228;-61
2022/03/26 02:42:26;;;;;;;40.47;21.93;;;;;;;;;;4988030;28;20661;-62
2022/03/26 02:44:54;;;;;;;35.57;20.83;;;;;;;;;;4992900;28;20222;-64
2022/03/26 02:47:22;;;;;;;38.57;21.37;;;;;;;;;;5015025;28;20206;-62
2022/03/26 02:49:49;;;;;;;35.20;20.70;;;;;;;;;;4998676;28;20210;-62
2022/03/26 02:52:17;;;;;;;39.43;21.73;;;;;;;;;;5013072;28;20210;-64
2022/03/26 02:54:44;;;;;;;37.10;20.80;;;;;;;;;;4991068;28;20577;-63
2022/03/26 02:57:12;;;;;;;35.57;20.60;;;;;;;;;;4999337;28;20201;-63
2022/03/26 02:59:39;;;;;;;35.60;20.83;;;;;;;;;;5011570;28;20249;-63
2022/03/26 03:02:09;;;;;;;35.87;19.40;;;;;;;;;;5009736;28;21190;-64
2022/03/26 03:04:38;;;;;;;33.93;20.67;;;;;;;;;;4993471;28;20628;-63
2022/03/26 03:07:06;;;;;;;35.63;20.13;;;;;;;;;;5005914;28;21196;-63
2022/03/26 03:09:34;;;;;;;34.70;20.30;;;;;;;;;;5018212;28;20219;-62
2022/03/26 03:12:01;;;;;;;33.93;20.10;;;;;;;;;;4992639;28;20227;-64
2022/03/26 03:14:29;;;;;;;40.73;21.83;;;;;;;;;;4997432;28;20210;-61
2022/03/26 03:16:56;;;;;;;35.10;20.33;;;;;;;;;;5016094;28;20207;-63
2022/03/26 03:19:24;;;;;;;35.00;19.87;;;;;;;;;;4999975;28;20695;-63
2022/03/26 03:21:51;;;;;;;32.00;18.70;;;;;;;;;;4991197;28;20309;-62
2022/03/26 03:24:18;;;;;;;34.70;20.63;;;;;;;;;;5006984;28;20269;-62
2022/03/26 03:26:46;;;;;;;37.47;20.70;;;;;;;;;;5005006;28;20202;-62
2022/03/26 03:29:13;;;;;;;37.67;20.30;;;;;;;;;;4993927;28;20318;-64
2022/03/26 03:31:44;;;;;;;32.93;19.37;;;;;;;;;;4999866;28;20293;-63
2022/03/26 03:34:12;;;;;;;37.70;20.63;;;;;;;;;;4986557;28;20309;-63
2022/03/26 03:36:40;;;;;;;36.83;21.17;;;;;;;;;;5007299;28;20210;-64
2022/03/26 03:39:07;;;;;;;32.97;19.30;;;;;;;;;;4985767;28;20281;-63
2022/03/26 03:41:35;;;;;;;33.83;19.53;;;;;;;;;;4990814;28;20230;-63
2022/03/26 03:44:02;;;;;;;36.60;20.23;;;;;;;;;;4997795;28;20249;-64
2022/03/26 03:46:30;;;;;;;35.53;20.07;;;;;;;;;;4985192;28;20848;-64
2022/03/26 03:48:58;;;;;;;34.73;19.70;;;;;;;;;;5002406;28;20202;-62
2022/03/26 03:51:25;;;;;;;34.10;19.43;;;;;;;;;;5004171;28;22236;-63
2022/03/26 03:53:53;;;;;;;33.03;20.20;;;;;;;;;;4992793;28;20203;-63
2022/03/26 03:56:20;;;;;;;34.63;20.03;;;;;;;;;;4982855;28;20241;-63
2022/03/26 03:58:48;;;;;;;35.07;19.73;;;;;;;;;;5019435;28;20366;-65
2022/03/26 04:01:15;;;;;;;32.07;19.23;;;;;;;;;;5017443;28;20226;-64
2022/03/26 04:03:43;;;;;;;33.43;19.07;;;;;;;;;;5037969;28;20367;-65
2022/03/26 04:06:10;;;;;;;35.60;19.90;;;;;;;;;;5004477;28;21493;-64
2022/03/26 04:08:38;;;;;;;39.13;20.47;;;;;;;;;;4986678;28;20207;-62
2022/03/26 04:11:05;;;;;;;39.13;21.03;;;;;;;;;;5007191;28;20344;-63
2022/03/26 04:13:33;;;;;;;33.83;19.97;;;;;;;;;;5014737;28;20211;-64
2022/03/26 04:16:00;;;;;;;37.97;20.43;;;;;;;;;;4992805;28;20221;-64
2022/03/26 04:18:28;;;;;;;32.37;20.13;;;;;;;;;;5011616;28;20297;-62
2022/03/26 04:20:56;;;;;;;37.77;20.37;;;;;;;;;;4993672;28;20234;-64
2022/03/26 04:23:24;;;;;;;35.77;20.67;;;;;;;;;;4987110;28;20214;-64
2022/03/26 04:25:52;;;;;;;36.90;20.27;;;;;;;;;;5008585;28;20217;-64
2022/03/26 04:28:20;;;;;;;35.20;20.37;;;;;;;;;;5008716;28;20217;-62
2022/03/26 04:30:47;;;;;;;33.60;20.30;;;;;;;;;;4993536;28;23174;-63
2022/03/26 04:33:15;;;;;;;36.57;20.97;;;;;;;;;;4994813;28;20252;-61
2022/03/26 04:35:43;;;;;;;36.57;21.17;;;;;;;;;;5009128;28;20210;-64
2022/03/26 04:38:10;;;;;;;34.37;20.80;;;;;;;;;;5009571;28;24852;-61
2022/03/26 04:40:37;;;;;;;34.33;20.07;;;;;;;;;;5004766;28;22855;-64
2022/03/26 04:43:09;;;;;;;39.43;21.23;;;;;;;;;;4984254;28;20671;-62
2022/03/26 04:45:37;;;;;;;35.30;21.10;;;;;;;;;;4985739;28;20225;-64
2022/03/26 04:48:04;;;;;;;38.40;20.97;;;;;;;;;;4999982;28;20229;-64
2022/03/26 04:50:32;;;;;;;37.27;21.07;;;;;;;;;;5002640;28;20668;-62
2022/03/26 04:52:59;;;;;;;36.77;20.17;;;;;;;;;;5003695;28;20672;-63
2022/03/26 04:55:30;;;;;;;34.30;20.33;;;;;;;;;;4992026;28;20206;-62
2022/03/26 04:57:57;;;;;;;36.37;21.13;;;;;;;;;;5011277;28;20623;-65
2022/03/26 05:00:24;;;;;;;38.10;21.63;;;;;;;;;;5004874;28;20240;-64
2022/03/26 05:02:52;;;;;;;41.87;22.83;;;;;;;;;;4997813;28;20213;-64
2022/03/26 05:05:19;;;;;;;51.17;33.33;;;;;;;;;;5011180;28;20201;-64
2022/03/26 05:07:47;;;;;;;41.10;25.20;;;;;;;;;;4991314;28;20213;-61
2022/03/26 05:10:16;;;;;;;36.47;21.53;;;;;;;;;;4994736;28;20237;-61
2022/03/26 05:12:43;;;;;;;35.83;21.57;;;;;;;;;;4979631;28;20232;-63
2022/03/26 05:15:12;;;;;;;34.90;21.20;;;;;;;;;;4999740;28;20223;-63
2022/03/26 05:17:39;;;;;;;35.43;21.20;;;;;;;;;;5010626;28;20246;-63
2022/03/26 05:20:08;;;;;;;37.67;21.50;;;;;;;;;;4992574;28;20226;-63
2022/03/26 05:22:36;;;;;;;35.87;21.73;;;;;;;;;;4995191;28;20216;-63
2022/03/26 05:25:03;;;;;;;37.70;20.90;;;;;;;;;;4993759;28;20620;-64
2022/03/26 05:27:31;;;;;;;36.47;20.80;;;;;;;;;;5008446;28;20247;-64
2022/03/26 05:29:59;;;;;;;37.73;21.10;;;;;;;;;;4994470;28;20278;-62
2022/03/26 05:32:26;;;;;;;40.83;20.97;;;;;;;;;;4994916;28;20228;-63
2022/03/26 05:34:54;;;;;;;35.40;21.87;;;;;;;;;;4994469;28;20205;-61
2022/03/26 05:37:21;;;;;;;35.70;21.10;;;;;;;;;;5016084;28;20201;-64
2022/03/26 05:39:48;;;;;;;33.13;20.73;;;;;;;;;;5021259;28;20204;-62
2022/03/26 05:42:16;;;;;;;38.57;21.33;;;;;;;;;;5011066;28;20207;-63
2022/03/26 05:44:43;;;;;;;39.00;22.97;;;;;;;;;;5020420;28;20215;-64
2022/03/26 05:47:11;;;;;;;38.73;20.47;;;;;;;;;;5010722;28;20606;-63
2022/03/26 05:49:39;;;;;;;38.97;20.70;;;;;;;;;;5029070;28;20203;-64
2022/03/26 05:52:07;;;;;;;37.40;21.17;;;;;;;;;;5033988;28;20219;-64
2022/03/26 05:54:35;;;;;;;37.47;21.10;;;;;;;;;;5005250;28;20205;-63
2022/03/26 05:57:02;;;;;;;37.93;20.70;;;;;;;;;;5005268;28;20209;-62
2022/03/26 05:59:31;;;;;;;37.37;20.90;;;;;;;;;;4998474;28;20219;-62
2022/03/26 06:01:59;;;;;;;40.13;21.67;;;;;;;;;;5020535;28;20207;-64
2022/03/26 06:04:28;;;;;;;37.57;20.47;;;;;;;;;;5015445;28;20213;-63
2022/03/26 06:06:56;;;;;;;36.27;20.83;;;;;;;;;;5020296;28;20211;-64
2022/03/26 06:09:23;;;;;;;34.53;20.50;;;;;;;;;;5013058;28;20653;-63
2022/03/26 06:11:51;;;;;;;41.47;21.80;;;;;;;;;;4996865;28;20294;-63
2022/03/26 06:14:19;;;;;;;36.47;20.83;;;;;;;;;;4987561;28;20207;-64
2022/03/26 06:16:46;;;;;;;36.27;21.80;;;;;;;;;;5002898;28;22146;-63
2022/03/26 06:19:17;;;;;;;33.97;20.37;;;;;;;;;;5000726;28;20447;-64
2022/03/26 06:21:44;;;;;;;37.23;20.60;;;;;;;;;;5001931;28;20224;-63
2022/03/26 06:24:12;;;;;;;35.60;21.63;;;;;;;;;;4989338;28;20223;-63
2022/03/26 06:26:42;;;;;;;37.80;20.83;;;;;;;;;;5005324;28;20300;-63
2022/03/26 06:29:10;;;;;;;38.40;21.30;;;;;;;;;;5004273;28;20216;-64
2022/03/26 06:31:37;;;;;;;40.33;20.83;;;;;;;;;;4983061;28;20233;-63
2022/03/26 06:34:05;;;;;;;36.27;21.07;;;;;;;;;;4993004;28;20210;-62
2022/03/26 06:36:34;;;;;;;40.27;20.90;;;;;;;;;;4984624;28;20235;-64
2022/03/26 06:39:08;;;;;;;36.43;21.03;;;;;;;;;;5000575;28;20617;-63
2022/03/26 06:41:43;;;;;;;37.27;21.63;;;;;;;;;;4986782;28;20272;-63
2022/03/26 06:44:12;;;;;;;36.87;20.90;;;;;;;;;;5013723;28;20236;-63
2022/03/26 06:46:40;;;;;;;36.63;21.93;;;;;;;;;;5010271;28;20696;-63
2022/03/26 06:49:08;;;;;;;37.03;21.47;;;;;;;;;;5016251;28;20209;-64
2022/03/26 06:51:37;;;;;;;36.83;21.00;;;;;;;;;;4995676;28;20260;-65
2022/03/26 06:54:04;;;;;;;38.00;22.07;;;;;;;;;;4999381;28;20276;-63
2022/03/26 06:56:33;;;;;;;35.10;21.00;;;;;;;;;;4979230;28;20213;-64
2022/03/26 06:59:01;;;;;;;37.13;21.53;;;;;;;;;;4991079;28;20273;-64
2022/03/26 07:01:29;;;;;;;35.87;21.20;;;;;;;;;;5008356;28;20238;-62
2022/03/26 07:03:56;;;;;;;38.37;22.60;;;;;;;;;;5002782;28;20231;-61
2022/03/26 07:06:24;;;;;;;38.47;21.00;;;;;;;;;;4986448;28;20583;-63
2022/03/26 07:08:51;;;;;;;37.00;21.27;;;;;;;;;;4976261;28;20215;-63
2022/03/26 07:11:18;;;;;;;38.77;22.00;;;;;;;;;;4996705;28;20226;-63
2022/03/26 07:13:46;;;;;;;39.03;21.50;;;;;;;;;;4995815;28;20262;-63
2022/03/26 07:16:13;;;;;;;40.80;22.57;;;;;;;;;;5006235;28;20978;-62
2022/03/26 07:18:41;;;;;;;37.53;22.60;;;;;;;;;;4996099;28;20234;-63
2022/03/26 07:21:09;;;;;;;39.07;22.77;;;;;;;;;;5013935;28;20260;-62
2022/03/26 07:23:37;;;;;;;39.60;22.57;;;;;;;;;;5012588;28;20211;-63
2022/03/26 07:26:04;;;;;;;40.67;23.27;;;;;;;;;;4992306;28;20236;-63
2022/03/26 07:28:32;;;;;;;40.07;22.60;;;;;;;;;;4996706;28;20218;-63
2022/03/26 07:30:59;;;;;;;35.97;21.83;;;;;;;;;;4987090;28;20223;-64
2022/03/26 07:33:27;;;;;;;34.40;21.93;;;;;;;;;;4994897;28;20600;-64
2022/03/26 07:35:56;;;;;;;39.83;21.40;;;;;;;;;;5000206;28;20203;-63
2022/03/26 07:38:23;;;;;;;40.37;21.97;;;;;;;;;;5010831;28;20199;-63
2022/03/26 07:40:52;;;;;;;35.00;21.53;;;;;;;;;;5017867;28;20245;-61
2022/03/26 07:43:19;;;;;;;38.20;22.93;;;;;;;;;;5016324;28;20204;-63
2022/03/26 07:45:47;;;;;;;37.03;22.30;;;;;;;;;;5007474;28;20215;-62
2022/03/26 07:48:14;;;;;;;37.60;22.47;;;;;;;;;;5012051;28;20215;-63
2022/03/26 07:50:42;;;;;;;37.20;22.13;;;;;;;;;;5014608;28;20246;-63
2022/03/26 07:53:10;;;;;;;36.73;23.07;;;;;;;;;;5004609;28;20653;-63
2022/03/26 07:55:37;;;;;;;34.83;22.27;;;;;;;;;;4998614;28;21025;-61
2022/03/26 07:58:04;;;;;;;39.27;22.97;;;;;;;;;;4995521;28;20211;-64
2022/03/26 08:00:32;;;;;;;39.33;22.57;;;;;;;;;;4990122;28;20634;-64
2022/03/26 08:03:00;;;;;;;39.33;21.90;;;;;;;;;;5005076;28;20222;-64
2022/03/26 08:05:28;;;;;;;40.53;22.07;;;;;;;;;;4994805;28;20207;-64
2022/03/26 08:07:56;;;;;;;44.07;23.37;;;;;;;;;;4992456;28;20309;-63
2022/03/26 08:10:23;;;;;;;36.70;23.17;;;;;;;;;;5014336;28;20235;-63
2022/03/26 08:12:50;;;;;;;38.73;23.40;;;;;;;;;;4998094;28;20230;-63
2022/03/26 08:15:18;;;;;;;37.87;22.93;;;;;;;;;;5007213;28;20203;-66
2022/03/26 08:17:45;;;;;;;38.77;23.40;;;;;;;;;;5015912;28;20207;-65
2022/03/26 08:20:13;;;;;;;39.60;23.73;;;;;;;;;;5013436;28;20219;-66
2022/03/26 08:22:43;;;;;;;41.03;23.13;;;;;;;;;;4990765;28;20251;-65
2022/03/26 08:25:10;;;;;;;35.20;23.07;;;;;;;;;;5017228;28;20242;-66
2022/03/26 08:27:38;;;;;;;37.67;22.17;;;;;;;;;;5015855;28;20620;-66
2022/03/26 08:30:07;;;;;;;39.27;24.00;;;;;;;;;;5002335;28;20235;-66
2022/03/26 08:32:35;;;;;;;36.30;22.23;;;;;;;;;;5000436;28;20214;-66
2022/03/26 08:35:02;;;;;;;38.23;23.87;;;;;;;;;;5013497;28;20214;-64
2022/03/26 08:37:34;;;;;;;37.70;23.97;;;;;;;;;;4990288;28;20584;-65
2022/03/26 08:40:02;;;;;;;37.00;22.83;;;;;;;;;;5007216;28;21631;-65
2022/03/26 08:42:30;;;;;;;39.47;24.87;;;;;;;;;;4998691;28;20221;-65
2022/03/26 08:44:58;;;;;;;36.13;23.30;;;;;;;;;;5003355;28;20257;-65
2022/03/26 08:47:25;;;;;;;35.93;22.83;;;;;;;;;;5019926;28;20212;-66
2022/03/26 08:49:52;;;;;;;38.03;23.27;;;;;;;;;;4999791;28;20575;-64
2022/03/26 08:52:21;;;;;;;37.33;23.07;;;;;;;;;;4998181;28;20222;-65
2022/03/26 08:54:49;;;;;;;39.63;23.93;;;;;;;;;;5016310;28;20203;-65
2022/03/26 08:57:16;;;;;;;39.20;23.20;;;;;;;;;;4998508;28;20202;-66
2022/03/26 08:59:43;;;;;;;38.00;23.57;;;;;;;;;;5000035;28;20207;-65
2022/03/26 09:02:11;;;;;;;37.33;23.43;;;;;;;;;;5019947;28;20257;-64
2022/03/26 09:04:39;;;;;;;40.20;23.23;;;;;;;;;;4997111;28;20289;-64
2022/03/26 09:07:09;;;;;;;38.17;23.53;;;;;;;;;;5002604;28;20697;-64
2022/03/26 09:09:37;;;;;;;39.40;23.87;;;;;;;;;;5014924;28;20206;-65
2022/03/26 09:12:05;;;;;;;35.27;22.60;;;;;;;;;;4992611;28;20230;-65
2022/03/26 09:14:33;;;;;;;36.20;23.30;;;;;;;;;;4992722;28;20237;-66
2022/03/26 09:17:00;;;;;;;40.77;23.23;;;;;;;;;;4993053;28;20210;-66
2022/03/26 09:19:27;;;;;;;36.07;23.90;;;;;;;;;;4997268;28;20211;-65
2022/03/26 09:21:55;;;;;;;37.50;22.70;;;;;;;;;;5020598;28;20231;-63
2022/03/26 09:24:23;;;;;;;36.80;23.17;;;;;;;;;;4994921;28;20221;-65
2022/03/26 09:26:50;;;;;;;37.37;22.97;;;;;;;;;;4995030;28;20536;-64
2022/03/26 09:29:17;;;;;;;37.13;24.03;;;;;;;;;;5016502;28;20466;-64
2022/03/26 09:31:45;;;;;;;36.00;23.40;;;;;;;;;;5011115;28;20249;-65
2022/03/26 09:34:12;;;;;;;33.87;23.40;;;;;;;;;;4999855;28;20215;-65
2022/03/26 09:36:40;;;;;;;33.30;22.47;;;;;;;;;;5015286;28;20253;-66
2022/03/26 09:39:07;;;;;;;36.53;23.63;;;;;;;;;;5011251;28;20246;-66
2022/03/26 09:41:35;;;;;;;34.23;23.47;;;;;;;;;;4991918;28;20230;-65
2022/03/26 09:44:03;;;;;;;34.97;22.17;;;;;;;;;;5002334;28;20213;-67
2022/03/26 09:46:32;;;;;;;35.97;22.70;;;;;;;;;;5011864;28;20220;-66
2022/03/26 09:49:00;;;;;;;35.60;22.13;;;;;;;;;;5003541;28;20321;-65
2022/03/26 09:51:27;;;;;;;32.67;22.53;;;;;;;;;;5010536;28;20264;-63
2022/03/26 09:53:55;;;;;;;32.27;21.50;;;;;;;;;;5003144;28;20223;-64
2022/03/26 09:56:24;;;;;;;32.60;22.87;;;;;;;;;;5004835;28;20207;-65
2022/03/26 09:58:56;;;;;;;35.20;22.20;;;;;;;;;;5021439;28;20735;-64
2022/03/26 10:01:25;;;;;;;32.87;22.97;;;;;;;;;;4999823;28;20242;-65
2022/03/26 10:04:13;;;;;;;32.83;22.47;;;;;;;;;;5022988;28;20214;-64
2022/03/26 10:06:51;;;;;;;37.10;23.73;;;;;;;;;;5008217;28;20680;-65
2022/03/26 10:09:25;;;;;;;36.43;23.17;;;;;;;;;;5023534;28;20268;-64
2022/03/26 10:11:59;;;;;;;33.13;22.23;;;;;;;;;;5012237;28;20301;-64
2022/03/26 10:14:36;;;;;;;34.40;22.93;;;;;;;;;;4995270;28;20200;-66
2022/03/26 10:17:14;;;;;;;35.77;22.53;;;;;;;;;;5015521;28;20206;-64
2022/03/26 10:19:42;;;;;;;35.60;22.53;;;;;;;;;;5003971;28;20225;-66
2022/03/26 10:22:22;;;;;;;34.63;22.93;;;;;;;;;;4999756;28;20199;-67
2022/03/26 10:24:50;;;;;;;36.93;22.67;;;;;;;;;;5021765;28;20203;-65
2022/03/26 10:27:18;;;;;;;34.13;22.93;;;;;;;;;;5005553;28;20729;-64
2022/03/26 10:29:49;;;;;;;34.50;22.90;;;;;;;;;;5002121;28;20205;-66
2022/03/26 10:32:39;;;;;;;35.43;23.00;;;;;;;;;;5005606;28;20651;-66
2022/03/26 10:35:08;;;;;;;33.37;21.73;;;;;;;;;;5001584;28;20257;-66
2022/03/26 10:37:53;;;;;;;30.33;21.60;;;;;;;;;;5011509;28;20219;-66
2022/03/26 10:40:21;;;;;;;33.27;22.40;;;;;;;;;;5020831;28;20504;-66
2022/03/26 10:42:52;;;;;;;34.90;22.40;;;;;;;;;;5034420;28;20211;-65
2022/03/26 10:45:20;;;;;;;32.80;22.37;;;;;;;;;;5011042;28;20211;-65
2022/03/26 10:47:53;;;;;;;33.00;22.93;;;;;;;;;;5020080;28;20214;-63
2022/03/26 10:50:21;;;;;;;31.83;22.70;;;;;;;;;;5025482;28;20619;-66
2022/03/26 10:52:49;;;;;;;36.60;23.77;;;;;;;;;;5014122;28;20728;-64
2022/03/26 10:55:18;;;;;;;37.13;22.40;;;;;;;;;;5012505;28;20233;-65
2022/03/26 10:57:46;;;;;;;33.47;21.30;;;;;;;;;;5006377;28;20818;-66
2022/03/26 11:00:15;;;;;;;32.60;23.17;;;;;;;;;;5004500;28;20254;-66
2022/03/26 11:02:43;;;;;;;32.90;22.60;;;;;;;;;;5022315;28;20203;-64
2022/03/26 11:05:11;;;;;;;38.27;22.93;;;;;;;;;;4992243;28;20215;-63
2022/03/26 11:07:41;;;;;;;30.40;22.93;;;;;;;;;;5000968;28;20333;-64
2022/03/26 11:10:10;;;;;;;32.67;22.73;;;;;;;;;;5000788;28;20259;-65
2022/03/26 11:12:40;;;;;;;33.87;23.17;;;;;;;;;;5014749;28;20629;-63
2022/03/26 11:15:10;;;;;;;32.80;22.13;;;;;;;;;;4999681;28;21700;-62
2022/03/26 11:17:47;;;;;;;35.00;23.20;;;;;;;;;;5006835;28;20241;-66
2022/03/26 11:20:15;;;;;;;34.47;22.67;;;;;;;;;;5007797;28;20237;-65
2022/03/26 11:22:50;;;;;;;32.73;22.40;;;;;;;;;;5014086;28;20207;-65
2022/03/26 11:25:26;;;;;;;31.07;21.67;;;;;;;;;;5016754;28;20226;-66
2022/03/26 11:28:00;;;;;;;30.37;20.37;;;;;;;;;;5019217;28;20214;-66
2022/03/26 11:30:33;;;;;;;29.57;22.07;;;;;;;;;;5024141;28;20813;-65
2022/03/26 11:33:11;;;;;;;31.23;21.53;;;;;;;;;;5015588;28;20219;-65
2022/03/26 11:35:54;;;;;;;32.57;22.93;;;;;;;;;;4994130;28;20978;-64
2022/03/26 11:38:23;;;;;;;33.67;21.73;;;;;;;;;;5006168;28;20676;-65
2022/03/26 11:41:09;;;;;;;33.87;22.30;;;;;;;;;;5009008;28;20243;-66
2022/03/26 11:43:43;;;;;;;28.87;21.27;;;;;;;;;;5023312;28;20220;-64
2022/03/26 11:52:32;;;;;;;31.00;20.80;;;;;;;;;;5006267;28;20211;-64
2022/03/26 11:55:19;;;;;;;26.77;19.98;;;;;;;;;;4989156;28;20207;-65
2022/03/26 11:57:47;;;;;;;28.95;21.10;;;;;;;;;;5018435;28;20205;-64
2022/03/26 12:00:18;;;;;;;27.03;20.13;;;;;;;;;;5002434;28;20226;-67
2022/03/26 12:02:52;;;;;;;33.03;23.23;;;;;;;;;;5000412;28;20215;-65
2022/03/26 12:08:19;;;;;;;32.45;21.77;;;;;;;;;;5017508;28;20198;-65
2022/03/26 12:10:47;;;;;;;26.98;20.60;;;;;;;;;;5013980;28;20222;-64
2022/03/26 12:13:21;;;;;;;27.35;20.13;;;;;;;;;;5011247;28;20241;-64
2022/03/26 12:16:07;;;;;;;31.40;21.33;;;;;;;;;;5013266;28;20215;-65
2022/03/26 12:18:39;;;;;;;31.13;21.98;;;;;;;;;;5010644;28;20683;-65
2022/03/26 12:21:21;;;;;;;31.63;21.70;;;;;;;;;;5013265;28;20234;-64
2022/03/26 12:23:50;;;;;;;31.02;21.05;;;;;;;;;;4993853;28;20241;-64
2022/03/26 12:26:18;;;;;;;30.65;21.83;;;;;;;;;;5011106;28;20310;-63
2022/03/26 12:28:45;;;;;;;32.60;23.10;;;;;;;;;;4993962;28;20263;-64
2022/03/26 12:31:14;;;;;;;29.02;22.20;;;;;;;;;;4994570;28;20312;-66
2022/03/26 12:33:46;;;;;;;27.92;21.25;;;;;;;;;;5003318;28;20272;-63
2022/03/26 12:36:14;;;;;;;27.85;19.88;;;;;;;;;;5011927;28;20218;-63
2022/03/26 12:38:53;;;;;;;27.65;21.05;;;;;;;;;;5000892;28;20211;-66
2022/03/26 12:41:20;;;;;;;29.77;20.95;;;;;;;;;;5008072;28;20226;-65
2022/03/26 12:43:53;;;;;;;31.77;21.95;;;;;;;;;;4996184;28;20265;-65
2022/03/26 12:46:21;;;;;;;29.48;21.55;;;;;;;;;;5002635;28;20234;-64
2022/03/26 12:48:49;;;;;;;29.30;21.63;;;;;;;;;;5020216;28;20241;-64
2022/03/26 12:51:16;;;;;;;30.85;22.08;;;;;;;;;;5002553;28;20226;-63
2022/03/26 12:53:46;;;;;;;27.75;21.05;;;;;;;;;;4997459;28;20708;-63
2022/03/26 12:56:14;;;;;;;29.15;20.70;;;;;;;;;;5013991;28;20198;-64
2022/03/26 12:58:56;;;;;;;28.65;20.70;;;;;;;;;;4985854;28;20207;-65
2022/03/26 13:01:24;;;;;;;28.42;20.05;;;;;;;;;;5002893;28;20258;-66
2022/03/26 13:03:52;;;;;;;28.55;19.15;;;;;;;;;;5014994;28;20211;-64
2022/03/26 13:06:20;;;;;;;28.48;20.42;;;;;;;;;;5017828;28;20210;-64
2022/03/26 13:08:49;;;;;;;30.27;20.35;;;;;;;;;;4994324;28;20619;-65
2022/03/26 13:11:18;;;;;;;30.00;21.83;;;;;;;;;;5012492;28;20909;-66
2022/03/26 13:13:55;;;;;;;28.75;20.77;;;;;;;;;;4994833;28;20229;-65
2022/03/26 13:16:27;;;;;;;26.27;19.92;;;;;;;;;;4995782;28;20210;-66
2022/03/26 13:19:14;;;;;;;27.02;19.83;;;;;;;;;;4993309;28;20273;-63
2022/03/26 13:21:50;;;;;;;32.28;21.77;;;;;;;;;;5015593;28;20226;-63
2022/03/26 13:24:28;;;;;;;29.55;20.48;;;;;;;;;;5001225;28;20745;-64
2022/03/26 13:26:58;;;;;;;27.48;19.75;;;;;;;;;;4999104;28;20214;-64
2022/03/26 13:29:26;;;;;;;25.67;19.20;;;;;;;;;;5003171;28;20203;-63
2022/03/26 13:32:00;;;;;;;27.80;19.00;;;;;;;;;;5013247;28;21234;-65
2022/03/26 13:34:33;;;;;;;30.52;20.35;;;;;;;;;;5018592;28;20325;-64
2022/03/26 13:37:23;;;;;;;29.25;19.05;;;;;;;;;;5003789;28;20221;-64
2022/03/26 13:39:55;;;;;;;28.08;19.75;;;;;;;;;;5020663;28;20195;-64
2022/03/26 13:42:23;;;;;;;27.45;18.27;;;;;;;;;;5007762;28;20211;-65
2022/03/26 13:44:51;;;;;;;23.90;18.35;;;;;;;;;;5026908;28;20715;-64
2022/03/26 13:47:20;;;;;;;28.05;20.17;;;;;;;;;;5017504;28;20304;-65
2022/03/26 13:50:00;;;;;;;24.63;18.95;;;;;;;;;;5003648;28;20681;-65
2022/03/26 13:52:31;;;;;;;26.20;19.35;;;;;;;;;;5006345;28;20214;-66
2022/03/26 13:54:59;;;;;;;25.10;17.83;;;;;;;;;;5015713;28;20223;-65
2022/03/26 13:57:31;;;;;;;25.05;18.90;;;;;;;;;;5020649;28;20211;-65
2022/03/26 14:00:06;;;;;;;27.17;19.35;;;;;;;;;;5026948;28;20218;-66
2022/03/26 14:02:35;;;;;;;27.63;19.13;;;;;;;;;;5022673;28;20209;-65
2022/03/26 14:05:02;;;;;;;24.83;18.05;;;;;;;;;;5011027;28;20257;-65
2022/03/26 14:07:31;;;;;;;25.95;19.25;;;;;;;;;;5025833;28;20246;-65
2022/03/26 14:09:59;;;;;;;25.77;18.35;;;;;;;;;;5012440;28;20253;-64
2022/03/26 14:12:27;;;;;;;24.85;17.95;;;;;;;;;;5007820;28;20211;-65
2022/03/26 14:14:54;;;;;;;22.77;17.13;;;;;;;;;;4999889;28;20235;-65
2022/03/26 14:17:22;;;;;;;24.17;16.45;;;;;;;;;;5027806;28;20607;-65
2022/03/26 14:19:49;;;;;;;20.85;16.30;;;;;;;;;;5009629;28;20361;-65
2022/03/26 14:22:16;;;;;;;23.30;15.77;;;;;;;;;;5013250;28;20203;-62
2022/03/26 14:24:47;;;;;;;19.92;14.80;;;;;;;;;;5007741;28;20660;-66
2022/03/26 14:27:14;;;;;;;17.95;13.48;;;;;;;;;;5021647;28;20211;-65
2022/03/26 14:29:41;;;;;;;19.58;15.48;;;;;;;;;;5007816;28;20215;-64
2022/03/26 14:32:13;;;;;;;22.83;16.25;;;;;;;;;;5036961;28;20281;-63
2022/03/26 14:34:41;;;;;;;23.23;15.98;;;;;;;;;;5016685;28;20262;-65
2022/03/26 14:37:08;;;;;;;18.80;14.20;;;;;;;;;;5014557;28;20203;-64